Time;durP1;ratioP1;P1;durP2;ratioP2;P2;SDS_P1;SDS_P2;PMS_P1;PMS_P2;Temp;Humidity;BMP_temperature;BMP_pressure;BME280_temperature;BME280_humidity;BME280_pressure;Samples;Min_cycle;Max_cycle;Signal;HPM_P1;HPM_P2
2023/05/13 00:03:41;;;;;;;13.77;9.93;;;9.20;99.90;;;;;;7328342;32;20158;-57
2023/05/13 00:07:43;;;;;;;14.65;9.95;;;9.20;99.90;;;;;;7327980;32;20669;-57
2023/05/13 00:11:45;;;;;;;11.65;9.27;;;9.10;99.90;;;;;;7339418;32;20099;-56
2023/05/13 00:15:46;;;;;;;13.52;9.85;;;9.20;99.90;;;;;;7330238;32;20131;-58
2023/05/13 00:19:48;;;;;;;13.40;9.63;;;9.20;99.90;;;;;;7336031;32;20296;-57
2023/05/13 00:23:50;;;;;;;11.52;9.50;;;9.00;99.90;;;;;;7328641;32;20129;-56
2023/05/13 00:27:52;;;;;;;9.98;8.82;;;9.00;99.90;;;;;;7332110;32;20326;-57
2023/05/13 00:31:54;;;;;;;12.10;9.75;;;9.00;99.90;;;;;;7335286;32;20116;-57
2023/05/13 00:35:56;;;;;;;10.40;9.40;;;8.90;99.90;;;;;;7326450;32;20288;-57
2023/05/13 00:39:58;;;;;;;17.10;10.20;;;9.00;99.90;;;;;;7332469;32;20179;-56
2023/05/13 00:44:00;;;;;;;13.52;11.10;;;9.10;99.90;;;;;;7334177;32;20127;-56
2023/05/13 00:48:05;;;;;;;13.50;11.63;;;9.20;99.90;;;;;;7333785;32;20194;-57
2023/05/13 00:52:07;;;;;;;16.92;12.10;;;9.30;99.90;;;;;;7334457;32;20249;-57
2023/05/13 00:56:08;;;;;;;14.13;12.27;;;9.30;99.90;;;;;;7329214;32;20130;-57
2023/05/13 01:00:11;;;;;;;16.30;11.95;;;9.30;99.90;;;;;;7331795;32;20793;-56
2023/05/13 01:04:34;;;;;;;19.27;12.57;;;9.30;99.90;;;;;;7329251;32;20103;-56
2023/05/13 01:09:06;;;;;;;18.52;13.23;;;9.40;99.90;;;;;;7327703;32;20162;-56
2023/05/13 01:13:15;;;;;;;17.90;12.43;;;9.40;99.90;;;;;;7304746;32;20210;-58
2023/05/13 01:17:30;;;;;;;14.73;13.07;;;9.40;99.90;;;;;;7327221;32;20135;-58
2023/05/13 01:21:37;;;;;;;15.40;13.07;;;9.50;99.90;;;;;;7332313;32;20273;-56
2023/05/13 01:25:39;;;;;;;13.55;12.23;;;9.50;99.90;;;;;;7332178;32;20661;-57
2023/05/13 01:29:43;;;;;;;14.50;13.00;;;9.50;99.90;;;;;;7332553;32;20134;-57
2023/05/13 01:33:46;;;;;;;14.63;13.13;;;9.50;99.90;;;;;;7328596;32;20169;-57
2023/05/13 01:37:49;;;;;;;14.82;13.30;;;9.50;99.90;;;;;;7329512;32;20217;-57
2023/05/13 01:41:51;;;;;;;15.40;13.52;;;9.60;99.90;;;;;;7332520;32;20512;-57
2023/05/13 01:45:53;;;;;;;18.20;16.30;;;9.80;99.90;;;;;;7331757;32;20344;-56
2023/05/13 01:49:55;;;;;;;19.98;15.80;;;10.10;99.90;;;;;;7324276;32;20123;-56
2023/05/13 01:53:56;;;;;;;21.48;16.92;;;10.40;99.90;;;;;;7320308;32;20207;-57
2023/05/13 01:57:58;;;;;;;20.08;16.67;;;10.40;99.90;;;;;;7328824;32;20721;-56
2023/05/13 02:02:00;;;;;;;17.62;15.18;;;10.60;99.90;;;;;;7331676;32;20329;-58
2023/05/13 02:06:02;;;;;;;19.50;14.27;;;10.60;99.90;;;;;;7325069;32;20370;-57
2023/05/13 02:10:04;;;;;;;18.30;15.77;;;10.60;99.90;;;;;;7334800;32;20371;-57
2023/05/13 02:14:05;;;;;;;18.05;15.70;;;10.60;99.90;;;;;;7323119;32;20156;-57
2023/05/13 02:18:07;;;;;;;17.15;15.25;;;10.70;99.90;;;;;;7324493;32;20199;-58
2023/05/13 02:22:09;;;;;;;16.95;15.15;;;10.80;99.90;;;;;;7331763;32;20139;-57
2023/05/13 02:26:11;;;;;;;17.25;14.55;;;10.80;99.90;;;;;;7334766;32;20179;-56
2023/05/13 02:30:13;;;;;;;21.87;14.48;;;11.00;99.90;;;;;;7330008;32;20730;-56
2023/05/13 02:34:14;;;;;;;18.40;14.93;;;10.90;99.90;;;;;;7334436;32;20224;-56
2023/05/13 02:38:16;;;;;;;15.40;13.80;;;11.00;99.90;;;;;;7318825;32;20135;-57
2023/05/13 02:42:18;;;;;;;17.02;14.40;;;11.00;99.90;;;;;;7333546;32;20131;-57
2023/05/13 02:46:19;;;;;;;13.68;12.37;;;11.10;99.90;;;;;;7332153;32;20130;-57
2023/05/13 02:50:21;;;;;;;14.80;11.82;;;11.00;99.90;;;;;;7331629;32;20204;-57
2023/05/13 02:54:23;;;;;;;16.02;11.82;;;11.00;99.90;;;;;;7335142;32;20139;-56
2023/05/13 02:58:25;;;;;;;18.77;12.32;;;10.90;99.90;;;;;;7332246;32;20147;-58
2023/05/13 03:02:27;;;;;;;15.93;13.50;;;10.90;99.90;;;;;;7332977;32;20164;-57
2023/05/13 03:06:29;;;;;;;15.45;13.88;;;10.80;99.90;;;;;;7334508;32;20095;-56
2023/05/13 03:10:30;;;;;;;16.12;13.80;;;10.90;99.90;;;;;;7330628;32;20213;-57
2023/05/13 03:14:33;;;;;;;15.45;12.37;;;10.80;99.90;;;;;;7328082;32;20155;-57
2023/05/13 03:18:35;;;;;;;14.38;12.98;;;10.80;99.90;;;;;;7337603;32;20120;-56
2023/05/13 03:22:40;;;;;;;14.35;12.57;;;10.70;99.90;;;;;;7325969;32;20108;-57
2023/05/13 03:26:41;;;;;;;13.43;11.82;;;10.70;99.90;;;;;;7324840;32;20155;-58
2023/05/13 03:30:43;;;;;;;16.62;12.60;;;10.70;99.90;;;;;;7327799;32;20301;-58
2023/05/13 03:34:45;;;;;;;13.93;12.45;;;10.60;99.90;;;;;;7328572;32;20130;-56
2023/05/13 03:38:47;;;;;;;12.80;11.57;;;10.50;99.90;;;;;;7328240;32;20639;-57
2023/05/13 03:42:48;;;;;;;15.07;12.15;;;10.30;99.90;;;;;;7324618;32;20126;-57
2023/05/13 03:46:50;;;;;;;14.95;12.00;;;10.20;99.90;;;;;;7330010;32;20462;-57
2023/05/13 03:50:52;;;;;;;13.15;10.65;;;10.10;99.90;;;;;;7331727;32;20211;-57
2023/05/13 03:54:53;;;;;;;12.77;11.15;;;9.90;99.90;;;;;;7325115;32;20206;-57
2023/05/13 03:58:55;;;;;;;12.50;11.20;;;10.00;99.90;;;;;;7331518;32;20143;-57
2023/05/13 04:02:57;;;;;;;13.00;11.73;;;9.90;99.90;;;;;;7333327;32;20757;-57
2023/05/13 04:06:58;;;;;;;13.00;11.32;;;9.90;99.90;;;;;;7327893;32;20138;-57
2023/05/13 04:11:00;;;;;;;16.05;12.02;;;9.80;99.90;;;;;;7325864;32;20179;-57
2023/05/13 04:15:02;;;;;;;15.32;11.63;;;9.80;99.90;;;;;;7322379;32;20107;-56
2023/05/13 04:19:03;;;;;;;13.27;11.93;;;9.80;99.90;;;;;;7320725;32;20249;-57
2023/05/13 04:23:06;;;;;;;21.17;13.70;;;9.90;99.90;;;;;;7322951;32;20180;-57
2023/05/13 04:27:07;;;;;;;14.68;13.27;;;10.00;99.90;;;;;;7336452;32;20160;-57
2023/05/13 04:31:11;;;;;;;15.73;14.15;;;10.10;99.90;;;;;;7327682;32;20352;-57
2023/05/13 04:35:12;;;;;;;16.98;12.52;;;10.30;99.90;;;;;;7326979;32;20258;-57
2023/05/13 04:39:14;;;;;;;16.20;12.93;;;10.70;99.90;;;;;;7331705;32;20153;-56
2023/05/13 04:43:16;;;;;;;14.27;11.43;;;11.10;99.90;;;;;;7325411;32;20403;-57
2023/05/13 04:47:18;;;;;;;12.18;10.73;;;11.60;99.90;;;;;;7326820;32;20648;-57
2023/05/13 04:51:19;;;;;;;14.38;9.57;;;12.00;99.90;;;;;;7327856;32;20108;-57
2023/05/13 04:55:22;;;;;;;12.37;9.32;;;12.70;99.90;;;;;;7324001;32;20133;-57
2023/05/13 04:59:24;;;;;;;9.13;8.23;;;13.10;99.90;;;;;;7328328;32;20223;-57
2023/05/13 05:03:26;;;;;;;9.23;7.85;;;13.60;99.90;;;;;;7331870;32;21811;-56
2023/05/13 05:07:28;;;;;;;9.68;8.13;;;13.90;99.90;;;;;;7329069;32;20131;-57
2023/05/13 05:11:30;;;;;;;13.13;8.85;;;14.20;99.90;;;;;;7333361;32;20566;-58
2023/05/13 05:15:31;;;;;;;8.77;7.85;;;14.30;99.90;;;;;;7328713;32;20116;-57
2023/05/13 05:19:33;;;;;;;9.70;8.65;;;14.30;99.90;;;;;;7324769;32;20186;-57
2023/05/13 05:23:35;;;;;;;10.85;7.90;;;14.00;99.90;;;;;;7328577;32;20245;-57
2023/05/13 05:27:37;;;;;;;9.93;7.37;;;13.70;99.90;;;;;;7331391;32;20115;-58
2023/05/13 05:31:39;;;;;;;10.52;8.52;;;13.40;99.90;;;;;;7333983;32;20122;-57
2023/05/13 05:35:41;;;;;;;11.18;8.30;;;13.20;99.90;;;;;;7321310;32;20132;-56
2023/05/13 05:39:42;;;;;;;13.65;10.10;;;13.10;99.90;;;;;;7324518;32;20238;-58
2023/05/13 05:43:44;;;;;;;9.40;8.40;;;12.90;99.90;;;;;;7326486;32;20275;-56
2023/05/13 05:47:46;;;;;;;9.88;8.60;;;12.80;99.90;;;;;;7326494;32;20137;-56
2023/05/13 05:51:47;;;;;;;13.32;9.73;;;12.80;99.90;;;;;;7328425;32;20134;-57
2023/05/13 05:55:49;;;;;;;11.98;10.70;;;12.70;99.90;;;;;;7333362;32;20237;-57
2023/05/13 05:59:53;;;;;;;12.90;10.93;;;12.80;99.90;;;;;;7331952;32;20474;-57
2023/05/13 06:03:55;;;;;;;11.23;9.90;;;12.70;99.90;;;;;;7328545;32;20312;-58
2023/05/13 06:07:57;;;;;;;13.18;10.02;;;12.90;99.90;;;;;;7337105;32;20119;-58
2023/05/13 06:11:59;;;;;;;12.52;10.27;;;13.00;99.90;;;;;;7332268;32;20255;-58
2023/05/13 06:16:01;;;;;;;11.43;9.82;;;13.10;99.90;;;;;;7332915;32;20454;-57
2023/05/13 06:20:03;;;;;;;18.67;10.00;;;13.20;99.90;;;;;;7334524;32;20239;-57
2023/05/13 06:24:05;;;;;;;11.00;9.45;;;13.40;99.90;;;;;;7335256;32;20234;-58
2023/05/13 06:28:07;;;;;;;11.35;9.00;;;13.80;99.90;;;;;;7330374;32;20103;-58
2023/05/13 06:32:09;;;;;;;8.70;7.80;;;14.60;99.90;;;;;;7335072;32;20115;-58
2023/05/13 06:36:11;;;;;;;9.57;8.02;;;15.20;99.90;;;;;;7335916;32;20101;-58
2023/05/13 06:40:13;;;;;;;13.95;8.18;;;15.80;99.90;;;;;;7338709;32;20366;-58
2023/05/13 06:44:15;;;;;;;10.18;7.78;;;15.60;99.90;;;;;;7335880;32;20214;-58
2023/05/13 06:48:16;;;;;;;11.77;8.25;;;15.40;99.90;;;;;;7328815;32;20104;-58
2023/05/13 06:52:18;;;;;;;10.05;7.28;;;15.90;99.90;;;;;;7328080;32;20202;-58
2023/05/13 06:56:23;;;;;;;9.90;8.02;;;16.00;99.90;;;;;;7331650;32;20234;-57
2023/05/13 07:00:24;;;;;;;10.63;7.60;;;16.20;99.90;;;;;;7335136;32;20262;-58
2023/05/13 07:04:29;;;;;;;13.20;8.00;;;16.20;99.90;;;;;;7327550;32;20139;-57
2023/05/13 07:08:30;;;;;;;8.63;7.28;;;16.00;99.90;;;;;;7335615;32;20174;-58
2023/05/13 07:12:32;;;;;;;9.95;7.57;;;16.30;99.90;;;;;;7330004;32;20146;-58
2023/05/13 07:16:34;;;;;;;8.60;6.70;;;16.60;99.90;;;;;;7332507;32;20200;-57
2023/05/13 07:20:36;;;;;;;9.30;6.78;;;16.60;99.90;;;;;;7328907;32;20161;-58
2023/05/13 07:24:38;;;;;;;9.68;6.37;;;16.30;99.90;;;;;;7329526;32;20135;-57
2023/05/13 07:28:39;;;;;;;14.32;6.90;;;16.30;99.90;;;;;;7326022;32;20715;-58
2023/05/13 07:32:41;;;;;;;8.55;6.43;;;16.60;99.90;;;;;;7328569;32;20276;-57
2023/05/13 07:36:43;;;;;;;10.13;6.72;;;16.50;99.90;;;;;;7328070;32;21114;-57
2023/05/13 07:40:45;;;;;;;10.30;7.50;;;16.50;99.90;;;;;;7324060;32;20319;-58
2023/05/13 07:44:46;;;;;;;8.52;7.62;;;16.60;99.90;;;;;;7327765;32;20144;-58
2023/05/13 07:48:48;;;;;;;8.10;7.00;;;16.50;99.90;;;;;;7329792;32;20208;-64
2023/05/13 07:52:50;;;;;;;11.00;8.38;;;16.10;99.90;;;;;;7332682;32;20211;-63
2023/05/13 07:56:52;;;;;;;13.00;8.30;;;15.40;99.90;;;;;;7327947;32;20120;-63
2023/05/13 08:00:54;;;;;;;11.98;8.50;;;15.40;99.90;;;;;;7321021;32;20483;-62
2023/05/13 08:04:55;;;;;;;10.52;8.35;;;15.30;99.90;;;;;;7325995;32;20196;-63
2023/05/13 08:08:57;;;;;;;10.48;8.98;;;15.10;99.90;;;;;;7326349;32;20207;-63
2023/05/13 08:12:59;;;;;;;11.15;7.95;;;15.10;99.90;;;;;;7338620;32;20201;-62
2023/05/13 08:17:04;;;;;;;13.18;8.70;;;15.10;99.90;;;;;;7347458;32;20154;-64
2023/05/13 08:21:06;;;;;;;9.63;7.57;;;15.20;99.90;;;;;;7334504;32;20213;-62
2023/05/13 08:25:10;;;;;;;9.68;7.75;;;15.60;99.90;;;;;;7338367;32;20222;-62
2023/05/13 08:29:14;;;;;;;8.48;7.45;;;15.80;99.90;;;;;;7330388;32;20163;-63
2023/05/13 08:33:16;;;;;;;8.07;6.37;;;16.30;99.90;;;;;;7329672;32;20303;-56
2023/05/13 08:37:17;;;;;;;9.32;6.22;;;17.30;99.90;;;;;;7324528;32;20175;-56
2023/05/13 08:41:21;;;;;;;7.62;5.20;;;17.80;99.90;;;;;;7341924;32;20464;-56
2023/05/13 08:45:26;;;;;;;8.25;5.10;;;18.10;99.90;;;;;;7328948;32;20104;-56
2023/05/13 08:49:28;;;;;;;7.65;5.15;;;19.30;99.90;;;;;;7326915;32;20112;-57
2023/05/13 08:53:30;;;;;;;8.70;4.95;;;20.70;99.90;;;;;;7330375;32;20107;-57
2023/05/13 08:57:32;;;;;;;7.20;5.00;;;21.70;99.90;;;;;;7334920;32;20158;-57
2023/05/13 09:01:34;;;;;;;10.48;4.50;;;22.60;99.90;;;;;;7333420;32;20137;-58
2023/05/13 09:05:36;;;;;;;11.05;5.07;;;22.00;99.90;;;;;;7331515;32;20242;-58
2023/05/13 09:09:39;;;;;;;9.40;4.57;;;21.90;99.90;;;;;;7329470;32;20215;-57
2023/05/13 09:13:43;;;;;;;6.95;3.65;;;22.50;99.90;;;;;;7323042;32;20286;-58
2023/05/13 09:17:52;;;;;;;5.85;3.60;;;22.90;99.90;;;;;;7328540;32;20169;-57
2023/05/13 09:21:54;;;;;;;5.22;3.50;;;23.50;99.90;;;;;;7332747;32;20119;-57
2023/05/13 09:25:56;;;;;;;5.28;3.47;;;23.40;99.90;;;;;;7326599;32;20979;-58
2023/05/13 09:29:59;;;;;;;6.85;3.37;;;23.40;99.90;;;;;;7331362;32;20141;-58
2023/05/13 09:34:01;;;;;;;8.23;3.50;;;24.30;99.90;;;;;;7330661;32;20331;-58
2023/05/13 09:38:12;;;;;;;7.40;3.20;;;24.10;97.20;;;;;;7327989;32;20473;-58
2023/05/13 09:42:18;;;;;;;6.65;3.12;;;24.20;93.40;;;;;;7325349;32;20493;-58
2023/05/13 09:46:20;;;;;;;8.30;3.47;;;24.30;95.60;;;;;;7327035;32;20187;-58
2023/05/13 09:50:22;;;;;;;8.10;3.60;;;24.30;95.20;;;;;;7322673;32;20193;-58
2023/05/13 09:54:26;;;;;;;7.32;3.20;;;24.10;92.10;;;;;;7321989;32;20183;-57
2023/05/13 09:58:29;;;;;;;7.18;3.70;;;23.60;91.20;;;;;;7326715;32;20113;-57
2023/05/13 10:02:32;;;;;;;6.53;3.50;;;22.80;89.30;;;;;;7330182;32;20129;-57
2023/05/13 10:06:34;;;;;;;8.32;3.60;;;22.70;94.40;;;;;;7330792;32;20201;-57
2023/05/13 10:10:37;;;;;;;5.03;3.70;;;22.60;91.30;;;;;;7328930;32;20796;-58
2023/05/13 10:14:40;;;;;;;6.32;3.50;;;22.40;92.60;;;;;;7325914;32;20133;-57
2023/05/13 10:18:42;;;;;;;6.60;3.65;;;22.90;94.10;;;;;;7320277;32;20611;-58
2023/05/13 10:22:44;;;;;;;8.02;3.80;;;22.50;93.70;;;;;;7327775;32;20115;-57
2023/05/13 10:26:50;;;;;;;7.57;4.07;;;23.10;92.70;;;;;;7332073;32;20202;-57
2023/05/13 10:30:52;;;;;;;6.60;3.55;;;22.90;91.80;;;;;;7329944;32;20235;-58
2023/05/13 10:35:03;;;;;;;5.50;3.40;;;22.90;92.40;;;;;;7329112;32;20864;-57
2023/05/13 10:39:16;;;;;;;7.32;3.55;;;23.00;91.20;;;;;;7330524;32;20522;-63
2023/05/13 10:43:21;;;;;;;6.65;3.83;;;23.40;94.10;;;;;;7333550;32;20238;-59
2023/05/13 10:47:23;;;;;;;5.70;3.08;;;23.70;91.20;;;;;;7321718;32;20170;-59
2023/05/13 10:51:25;;;;;;;6.80;3.03;;;23.50;89.80;;;;;;7333358;32;20388;-58
2023/05/13 10:55:27;;;;;;;6.07;3.05;;;23.50;86.90;;;;;;7334889;32;20225;-58
2023/05/13 10:59:29;;;;;;;8.02;3.47;;;23.80;91.30;;;;;;7334102;32;20846;-58
2023/05/13 11:03:31;;;;;;;7.22;3.20;;;24.00;90.90;;;;;;7336896;32;20829;-58
2023/05/13 11:07:38;;;;;;;9.45;3.45;;;24.10;85.80;;;;;;7335210;32;20107;-60
2023/05/13 11:11:40;;;;;;;6.87;3.60;;;23.90;85.20;;;;;;7335439;32;20188;-58
2023/05/13 11:15:48;;;;;;;11.00;3.40;;;23.70;86.50;;;;;;7332208;32;20821;-58
2023/05/13 11:19:52;;;;;;;11.20;3.15;;;23.40;84.30;;;;;;7325059;32;20131;-59
2023/05/13 11:24:04;;;;;;;5.90;3.22;;;23.40;90.50;;;;;;7325449;32;20116;-58
2023/05/13 11:28:07;;;;;;;7.45;2.90;;;23.60;84.70;;;;;;7333906;32;20238;-58
2023/05/13 11:32:09;;;;;;;7.90;3.20;;;24.10;84.40;;;;;;7332068;32;20255;-58
2023/05/13 11:36:11;;;;;;;8.75;2.65;;;24.10;80.10;;;;;;7334619;32;20216;-58
2023/05/13 11:40:21;;;;;;;4.12;2.83;;;23.80;78.80;;;;;;7338131;32;20111;-57
2023/05/13 11:44:24;;;;;;;6.87;3.03;;;24.00;81.30;;;;;;7334344;32;20635;-57
2023/05/13 11:48:26;;;;;;;6.65;3.20;;;24.20;82.10;;;;;;7327820;32;20148;-58
2023/05/13 11:52:28;;;;;;;8.25;2.87;;;24.20;78.10;;;;;;7330626;32;20129;-59
2023/05/13 11:56:30;;;;;;;6.35;2.72;;;25.20;77.40;;;;;;7325874;32;20563;-58
2023/05/13 12:00:33;;;;;;;4.62;2.75;;;25.40;76.00;;;;;;7330560;32;20209;-58
2023/05/13 12:04:35;;;;;;;5.60;2.72;;;25.90;75.40;;;;;;7336275;32;20123;-58
2023/05/13 12:08:44;;;;;;;6.90;2.87;;;26.80;70.50;;;;;;7335781;32;20245;-59
2023/05/13 12:12:46;;;;;;;6.07;2.80;;;27.70;68.40;;;;;;7324598;32;20935;-58
2023/05/13 12:16:49;;;;;;;4.07;2.80;;;28.00;65.10;;;;;;7331182;32;20206;-59
2023/05/13 12:20:51;;;;;;;5.07;2.40;;;28.10;64.70;;;;;;7336123;32;20289;-58
2023/05/13 12:24:52;;;;;;;6.05;2.95;;;27.80;61.20;;;;;;7331978;32;20104;-58
2023/05/13 12:28:58;;;;;;;5.82;2.80;;;27.30;60.70;;;;;;7330742;32;20283;-58
2023/05/13 12:33:00;;;;;;;5.72;2.45;;;27.00;63.00;;;;;;7335215;32;20103;-58
2023/05/13 12:37:10;;;;;;;6.53;3.08;;;27.00;61.10;;;;;;7325912;32;20146;-58
2023/05/13 12:41:12;;;;;;;6.30;2.58;;;26.70;58.60;;;;;;7331615;32;20107;-58
2023/05/13 12:45:14;;;;;;;4.75;2.40;;;26.60;61.90;;;;;;7331204;32;20590;-57
2023/05/13 12:49:16;;;;;;;6.18;2.70;;;25.60;56.90;;;;;;7321452;32;20243;-58
2023/05/13 12:53:18;;;;;;;6.30;2.45;;;25.50;60.00;;;;;;7325955;32;20489;-59
2023/05/13 12:57:19;;;;;;;4.62;2.55;;;25.90;58.30;;;;;;7323525;32;22693;-58
2023/05/13 13:01:21;;;;;;;7.80;3.03;;;25.30;59.20;;;;;;7331377;32;20152;-57
2023/05/13 13:05:23;;;;;;;5.22;2.85;;;23.60;62.90;;;;;;7323295;32;20161;-57
2023/05/13 13:09:26;;;;;;;5.05;2.70;;;22.50;66.60;;;;;;7329922;32;20107;-57
2023/05/13 13:13:27;;;;;;;5.40;2.55;;;22.00;68.80;;;;;;7327166;32;20154;-58
2023/05/13 13:17:29;;;;;;;3.65;2.70;;;22.00;73.20;;;;;;7334357;32;20257;-58
2023/05/13 13:21:31;;;;;;;6.65;2.75;;;22.70;70.50;;;;;;7324490;32;20215;-58
2023/05/13 13:25:32;;;;;;;5.00;3.00;;;23.60;72.90;;;;;;7329010;32;20103;-58
2023/05/13 13:29:34;;;;;;;3.50;2.53;;;24.00;65.90;;;;;;7325201;32;20129;-57
2023/05/13 13:33:36;;;;;;;7.55;2.90;;;23.60;68.50;;;;;;7318384;32;20142;-58
2023/05/13 13:37:38;;;;;;;9.50;2.60;;;23.60;64.30;;;;;;7323176;32;20683;-57
2023/05/13 13:41:39;;;;;;;5.22;2.60;;;23.50;64.40;;;;;;7326393;32;20234;-58
2023/05/13 13:45:41;;;;;;;9.77;2.80;;;23.60;62.80;;;;;;7331203;32;20149;-58
2023/05/13 13:49:43;;;;;;;3.53;2.40;;;23.80;62.30;;;;;;7319252;32;20226;-58
2023/05/13 13:53:44;;;;;;;7.47;2.60;;;24.50;67.30;;;;;;7315268;32;20242;-58
2023/05/13 13:57:46;;;;;;;3.78;2.05;;;24.70;61.80;;;;;;7322357;32;20183;-58
2023/05/13 14:01:48;;;;;;;8.00;2.50;;;24.50;62.00;;;;;;7332864;32;20167;-57
2023/05/13 14:05:50;;;;;;;6.25;2.40;;;24.20;62.40;;;;;;7322536;32;20222;-57
2023/05/13 14:09:52;;;;;;;3.85;2.17;;;23.30;63.30;;;;;;7331702;32;20103;-59
2023/05/13 14:13:54;;;;;;;3.42;2.40;;;22.80;65.70;;;;;;7332925;32;20195;-58
2023/05/13 14:17:56;;;;;;;5.00;2.42;;;22.50;66.90;;;;;;7331759;32;20445;-58
2023/05/13 14:21:58;;;;;;;4.47;2.00;;;22.40;65.70;;;;;;7336393;32;20476;-58
2023/05/13 14:25:59;;;;;;;5.35;2.15;;;22.30;63.00;;;;;;7329554;32;20214;-57
2023/05/13 14:30:01;;;;;;;4.37;1.83;;;22.00;62.60;;;;;;7337631;32;20139;-57
2023/05/13 14:34:05;;;;;;;4.72;2.00;;;21.80;63.40;;;;;;7338426;32;20614;-57
2023/05/13 14:38:26;;;;;;;6.90;2.33;;;21.90;66.00;;;;;;7330608;32;20223;-57
2023/05/13 14:42:28;;;;;;;5.10;2.78;;;22.40;66.00;;;;;;7342175;32;20628;-58
2023/05/13 14:46:32;;;;;;;3.55;2.30;;;22.70;66.50;;;;;;7338588;32;20592;-57
2023/05/13 14:50:34;;;;;;;3.17;2.28;;;22.40;68.30;;;;;;7335060;32;20103;-57
2023/05/13 14:54:37;;;;;;;7.68;3.10;;;22.70;68.10;;;;;;7336475;32;20145;-58
2023/05/13 14:58:38;;;;;;;4.62;2.90;;;23.20;65.30;;;;;;7341885;32;20600;-58
2023/05/13 15:02:40;;;;;;;3.62;2.50;;;23.70;63.00;;;;;;7335152;32;20617;-57
2023/05/13 15:06:42;;;;;;;5.00;2.45;;;23.00;66.30;;;;;;7329469;32;20178;-58
2023/05/13 15:10:44;;;;;;;3.17;2.37;;;22.90;70.40;;;;;;7326907;32;20780;-58
2023/05/13 15:14:53;;;;;;;7.85;3.17;;;22.60;66.70;;;;;;7338433;32;20186;-57
2023/05/13 15:18:55;;;;;;;9.23;2.33;;;22.00;71.60;;;;;;7329998;32;20407;-57
2023/05/13 15:22:57;;;;;;;6.07;3.58;;;20.90;79.80;;;;;;7337304;32;20452;-58
2023/05/13 15:27:00;;;;;;;9.98;4.28;;;19.90;85.40;;;;;;7327703;32;20170;-57
2023/05/13 15:31:01;;;;;;;3.53;2.45;;;19.60;91.50;;;;;;7331447;32;20438;-57
2023/05/13 15:35:03;;;;;;;6.30;2.75;;;19.30;91.70;;;;;;7330543;32;20107;-57
2023/05/13 15:39:05;;;;;;;7.62;3.05;;;19.10;93.50;;;;;;7335988;32;20256;-58
2023/05/13 15:43:07;;;;;;;4.50;2.97;;;18.50;97.00;;;;;;7335059;32;20259;-58
2023/05/13 15:47:09;;;;;;;4.30;3.40;;;17.80;99.90;;;;;;7330048;32;20244;-57
2023/05/13 15:51:11;;;;;;;5.18;3.22;;;17.30;99.90;;;;;;7324480;32;20710;-57
2023/05/13 15:55:12;;;;;;;6.07;3.28;;;17.10;99.90;;;;;;7331777;32;20458;-57
2023/05/13 15:59:14;;;;;;;3.95;3.03;;;17.00;99.90;;;;;;7334693;32;20175;-58
2023/05/13 16:03:16;;;;;;;3.17;2.75;;;17.20;99.90;;;;;;7333663;32;20172;-58
2023/05/13 16:07:17;;;;;;;5.93;2.62;;;17.30;99.90;;;;;;7328757;32;20199;-57
2023/05/13 16:11:19;;;;;;;3.50;2.28;;;17.40;99.90;;;;;;7329423;32;20539;-57
2023/05/13 16:15:21;;;;;;;3.97;2.70;;;17.50;99.90;;;;;;7329529;32;20313;-57
2023/05/13 16:19:22;;;;;;;3.22;2.50;;;17.60;99.90;;;;;;7323693;32;20100;-57
2023/05/13 16:23:24;;;;;;;4.85;3.05;;;17.50;99.90;;;;;;7328046;32;20593;-57
2023/05/13 16:27:27;;;;;;;5.60;3.20;;;17.50;99.90;;;;;;7327150;32;20583;-57
2023/05/13 16:31:29;;;;;;;4.18;2.80;;;17.50;99.90;;;;;;7330195;32;20251;-58
2023/05/13 16:35:31;;;;;;;3.22;2.80;;;17.30;99.90;;;;;;7324176;32;20218;-57
2023/05/13 16:39:32;;;;;;;4.70;3.05;;;17.20;99.90;;;;;;7329958;32;20146;-57
2023/05/13 16:43:34;;;;;;;3.70;2.60;;;17.20;99.90;;;;;;7333002;32;20359;-58
2023/05/13 16:47:36;;;;;;;6.47;3.03;;;17.20;99.90;;;;;;7330035;32;20143;-57
2023/05/13 16:51:38;;;;;;;3.75;2.67;;;17.30;99.90;;;;;;7330355;32;20202;-58
2023/05/13 16:55:39;;;;;;;4.35;2.90;;;17.30;99.90;;;;;;7329610;32;20165;-57
2023/05/13 16:59:42;;;;;;;2.92;2.58;;;17.40;99.90;;;;;;7336204;32;20624;-58
2023/05/13 17:03:43;;;;;;;7.97;2.75;;;17.40;99.90;;;;;;7335492;32;20618;-58
2023/05/13 17:07:45;;;;;;;4.22;3.10;;;17.40;99.90;;;;;;7323386;32;20635;-57
2023/05/13 17:11:47;;;;;;;4.50;3.22;;;17.60;99.90;;;;;;7323831;32;20750;-57
2023/05/13 17:15:48;;;;;;;5.28;3.33;;;17.60;99.90;;;;;;7313703;32;20107;-58
2023/05/13 17:19:50;;;;;;;7.12;2.97;;;17.70;99.90;;;;;;7338952;32;20192;-57
2023/05/13 17:23:52;;;;;;;3.12;2.67;;;17.60;99.90;;;;;;7328234;32;20222;-58
2023/05/13 17:27:54;;;;;;;8.02;3.50;;;17.50;99.90;;;;;;7331272;32;20381;-56
2023/05/13 17:31:55;;;;;;;4.82;3.35;;;17.60;99.90;;;;;;7323851;32;20107;-58
2023/05/13 17:35:57;;;;;;;4.47;3.55;;;17.50;99.90;;;;;;7327477;32;20274;-59
2023/05/13 17:40:01;;;;;;;4.55;3.40;;;17.50;99.90;;;;;;7328379;32;20202;-58
2023/05/13 17:44:03;;;;;;;4.43;2.75;;;17.50;99.90;;;;;;7327283;32;20149;-58
2023/05/13 17:48:05;;;;;;;4.57;3.50;;;17.40;99.90;;;;;;7328298;32;20186;-58
2023/05/13 17:52:06;;;;;;;6.93;3.87;;;17.30;99.90;;;;;;7329494;32;20100;-61
2023/05/13 17:56:09;;;;;;;6.97;3.42;;;17.20;99.90;;;;;;7338919;32;20145;-57
2023/05/13 18:00:12;;;;;;;6.12;3.70;;;17.10;99.90;;;;;;7334015;32;20167;-57
2023/05/13 18:04:14;;;;;;;6.80;3.60;;;17.10;99.90;;;;;;7340653;32;20252;-58
2023/05/13 18:08:15;;;;;;;5.40;3.85;;;17.20;99.90;;;;;;7334173;32;20096;-58
2023/05/13 18:12:17;;;;;;;5.62;3.47;;;17.10;99.90;;;;;;7332409;32;20232;-58
2023/05/13 18:16:19;;;;;;;6.93;3.42;;;17.10;99.90;;;;;;7328199;32;20125;-58
2023/05/13 18:20:21;;;;;;;6.40;3.30;;;17.00;99.90;;;;;;7328430;32;20668;-58
2023/05/13 18:24:23;;;;;;;4.35;3.05;;;17.00;99.90;;;;;;7323639;32;20218;-58
2023/05/13 18:28:24;;;;;;;7.50;3.50;;;16.90;99.90;;;;;;7340368;32;20130;-58
2023/05/13 18:32:26;;;;;;;5.55;3.83;;;16.90;99.90;;;;;;7345116;32;20381;-58
2023/05/13 18:36:28;;;;;;;5.40;3.78;;;16.90;99.90;;;;;;7341648;32;20159;-58
2023/05/13 18:40:30;;;;;;;12.43;3.72;;;16.70;99.90;;;;;;7335669;32;20320;-58
2023/05/13 18:44:32;;;;;;;7.65;3.72;;;16.70;99.90;;;;;;7330019;32;20099;-58
2023/05/13 18:48:34;;;;;;;6.50;3.70;;;16.50;99.90;;;;;;7336336;32;20404;-58
2023/05/13 18:52:36;;;;;;;8.20;3.72;;;16.40;99.90;;;;;;7336867;32;20182;-58
2023/05/13 18:56:38;;;;;;;7.60;4.05;;;16.20;99.90;;;;;;7335362;32;20284;-57
2023/05/13 19:00:39;;;;;;;6.80;4.60;;;15.90;99.90;;;;;;7333797;32;20149;-57
2023/05/13 19:04:41;;;;;;;5.80;4.20;;;15.70;99.90;;;;;;7334373;32;20104;-57
2023/05/13 19:08:43;;;;;;;4.53;4.07;;;15.40;99.90;;;;;;7331475;32;20565;-58
2023/05/13 19:12:45;;;;;;;7.87;4.53;;;15.20;99.90;;;;;;7336276;32;20124;-58
2023/05/13 19:16:46;;;;;;;9.15;5.10;;;15.00;99.90;;;;;;7331309;32;20206;-57
2023/05/13 19:20:48;;;;;;;9.75;5.10;;;14.80;99.90;;;;;;7342396;32;20224;-58
2023/05/13 19:24:50;;;;;;;9.65;4.70;;;14.50;99.90;;;;;;7338363;32;20206;-57
2023/05/13 19:28:51;;;;;;;12.35;5.18;;;14.30;99.90;;;;;;7329647;32;20099;-57
2023/05/13 19:32:53;;;;;;;8.43;6.00;;;14.20;99.90;;;;;;7341434;32;20095;-57
2023/05/13 19:36:55;;;;;;;11.65;6.43;;;14.00;99.90;;;;;;7334859;32;20111;-57
2023/05/13 19:40:56;;;;;;;9.13;5.90;;;13.80;99.90;;;;;;7319075;32;20519;-57
2023/05/13 19:44:58;;;;;;;9.60;6.40;;;13.60;99.90;;;;;;7328840;32;20186;-57
2023/05/13 19:49:00;;;;;;;14.23;6.53;;;13.40;99.90;;;;;;7326872;32;20171;-57
2023/05/13 19:53:01;;;;;;;8.82;5.60;;;13.30;99.90;;;;;;7335748;32;20178;-57
2023/05/13 19:57:03;;;;;;;8.57;6.18;;;13.10;99.90;;;;;;7337864;32;20557;-56
2023/05/13 20:01:05;;;;;;;10.75;6.55;;;13.00;99.90;;;;;;7328424;32;20210;-56
2023/05/13 20:05:07;;;;;;;12.35;6.75;;;12.90;99.90;;;;;;7326855;32;20517;-57
2023/05/13 20:09:10;;;;;;;9.25;6.20;;;12.80;99.90;;;;;;7329636;32;20116;-57
2023/05/13 20:13:12;;;;;;;10.63;7.30;;;12.60;99.90;;;;;;7332801;32;20154;-56
2023/05/13 20:17:16;;;;;;;7.85;6.35;;;12.50;99.90;;;;;;7334175;32;20247;-56
2023/05/13 20:21:18;;;;;;;11.75;8.80;;;12.40;99.90;;;;;;7337773;32;20566;-55
2023/05/13 20:25:20;;;;;;;10.10;8.30;;;12.30;99.90;;;;;;7335931;32;20254;-56
2023/05/13 20:29:22;;;;;;;11.15;8.48;;;12.20;99.90;;;;;;7326691;32;20560;-56
2023/05/13 20:33:23;;;;;;;8.77;6.97;;;12.10;99.90;;;;;;7333413;32;20325;-56
2023/05/13 20:37:25;;;;;;;12.13;7.40;;;12.00;99.90;;;;;;7328527;32;20225;-56
2023/05/13 20:41:27;;;;;;;11.85;7.53;;;11.90;99.90;;;;;;7335484;32;20126;-56
2023/05/13 20:45:29;;;;;;;8.73;7.62;;;11.80;99.90;;;;;;7338192;32;20333;-56
2023/05/13 20:49:32;;;;;;;11.27;9.30;;;11.70;99.90;;;;;;7337053;32;20115;-56
2023/05/13 20:53:35;;;;;;;15.27;9.82;;;11.60;99.90;;;;;;7338227;32;20162;-55